createdAt,value
2017-09-30T00:00:03.986Z,49.7
2017-09-30T00:01:04.741Z,54.9
2017-09-30T00:02:05.471Z,56.0
2017-09-30T00:03:06.608Z,64.4
2017-09-30T00:04:07.382Z,60.7
2017-09-30T00:05:08.115Z,65.1
2017-09-30T00:06:08.878Z,69.8
2017-09-30T00:07:09.602Z,72.5
2017-09-30T00:08:10.733Z,74.4
2017-09-30T00:09:11.533Z,67.6
2017-09-30T00:10:12.272Z,71.5
2017-09-30T00:11:13.009Z,63.3
2017-09-30T00:12:13.774Z,61.9
2017-09-30T00:13:14.623Z,63.0
2017-09-30T00:14:15.346Z,68.2
2017-09-30T00:15:16.086Z,64.7
2017-09-30T00:16:17.141Z,70.1
2017-09-30T00:17:17.934Z,70.9
2017-09-30T00:18:18.731Z,66.8
2017-09-30T00:19:19.470Z,87.1
2017-09-30T00:20:20.210Z,96.8
2017-09-30T00:21:21.346Z,103.9
2017-09-30T00:22:22.164Z,103.8
2017-09-30T00:23:22.923Z,123.1
2017-09-30T00:24:23.652Z,112.3
2017-09-30T00:25:24.384Z,115.7
2017-09-30T00:26:25.219Z,128.2
2017-09-30T00:27:26.194Z,121.9
2017-09-30T00:28:27.006Z,126.8
2017-09-30T00:29:27.740Z,139.8
2017-09-30T00:30:28.470Z,154.9
2017-09-30T00:31:29.215Z,174.6
2017-09-30T00:32:29.959Z,134.9
2017-09-30T00:33:31.030Z,136.5
2017-09-30T00:34:31.812Z,161.8
2017-09-30T00:35:32.621Z,207.5
2017-09-30T00:36:33.360Z,213.2
2017-09-30T00:37:34.111Z,191.0
2017-09-30T00:38:34.830Z,213.2
2017-09-30T00:39:35.909Z,189.7
2017-09-30T00:40:36.642Z,139.8
2017-09-30T00:41:37.390Z,143.8
2017-09-30T00:42:38.124Z,133.0
2017-09-30T00:43:38.860Z,147.7
2017-09-30T00:44:39.680Z,330.8
2017-09-30T00:45:40.819Z,146.7
2017-09-30T00:46:41.559Z,169.9
2017-09-30T00:47:42.289Z,138.4
2017-09-30T00:48:43.039Z,128.2
2017-09-30T00:49:43.784Z,159.4
2017-09-30T00:50:44.964Z,154.1
2017-09-30T00:51:45.743Z,210.0
2017-09-30T00:52:46.482Z,327.4
2017-09-30T00:53:47.226Z,358.9
2017-09-30T00:54:48.047Z,267.3
2017-09-30T00:55:48.809Z,213.8
2017-09-30T00:56:49.539Z,269.2
2017-09-30T00:57:50.681Z,253.5
2017-09-30T00:58:51.511Z,242.9
2017-09-30T00:59:52.278Z,247.4
2017-09-30T01:00:53.019Z,209.6
2017-09-30T01:01:53.753Z,260.1
2017-09-30T01:02:54.689Z,296.4
2017-09-30T01:03:55.427Z,275.3
2017-09-30T01:04:56.214Z,343.7
2017-09-30T01:05:56.949Z,428.6
2017-09-30T01:06:57.689Z,597.4
2017-09-30T01:07:58.828Z,419.8
2017-09-30T01:08:59.562Z,292.8
2017-09-30T01:10:00.299Z,434.2
2017-09-30T01:11:01.019Z,300.1
2017-09-30T01:12:01.767Z,219.5
2017-09-30T01:13:02.853Z,193.5
2017-09-30T01:14:03.642Z,258.2
2017-09-30T01:15:04.453Z,392.6
2017-09-30T01:16:05.235Z,214.2
2017-09-30T01:17:06.030Z,185.3
2017-09-30T01:18:06.759Z,199.4
2017-09-30T01:19:07.492Z,203.1
2017-09-30T01:20:08.233Z,231.5
2017-09-30T01:21:09.030Z,246.7
2017-09-30T01:22:10.255Z,397.4
2017-09-30T01:23:11.019Z,358.1
2017-09-30T01:24:11.760Z,378.0
2017-09-30T01:25:12.500Z,328.9
2017-09-30T01:26:13.313Z,478.3
2017-09-30T01:27:14.454Z,613.6
2017-09-30T01:28:15.246Z,708.3
2017-09-30T01:29:16.023Z,192.8
2017-09-30T01:30:16.813Z,101.4
2017-09-30T01:31:17.557Z,120.9
2017-09-30T01:32:18.598Z,141.7
2017-09-30T01:33:19.405Z,161.3
2017-09-30T01:34:21.308Z,222.7
2017-09-30T01:35:22.996Z,334.4
2017-09-30T01:36:23.676Z,310.6
2017-09-30T01:37:24.409Z,216.7
2017-09-30T01:38:25.130Z,185.3
2017-09-30T01:39:25.864Z,261.1
2017-09-30T01:40:26.651Z,219.1
2017-09-30T01:41:27.391Z,214.4
2017-09-30T01:42:28.425Z,309.5
2017-09-30T01:43:29.233Z,245.8
2017-09-30T01:44:30.051Z,353.1
2017-09-30T01:45:30.847Z,346.5
2017-09-30T01:46:31.655Z,230.2
2017-09-30T01:47:32.790Z,439.1
2017-09-30T01:48:33.523Z,230.7
2017-09-30T01:49:34.331Z,223.6
2017-09-30T01:50:35.067Z,264.3
2017-09-30T01:51:35.862Z,226.8
2017-09-30T01:52:37.056Z,226.7
2017-09-30T01:53:37.791Z,251.6
2017-09-30T01:54:38.521Z,233.2
2017-09-30T01:55:39.250Z,320.5
2017-09-30T01:56:39.990Z,303.2
2017-09-30T01:57:41.015Z,203.9
2017-09-30T01:58:41.745Z,264.8
2017-09-30T01:59:42.493Z,349.3
2017-09-30T02:00:43.280Z,342.2
2017-09-30T02:01:44.045Z,204.5
2017-09-30T02:02:45.152Z,323.6
2017-09-30T02:03:45.900Z,246.6
2017-09-30T02:04:46.632Z,270.1
2017-09-30T02:05:47.459Z,281.1
2017-09-30T02:06:48.274Z,204.0
2017-09-30T02:07:49.251Z,226.7
2017-09-30T02:08:50.000Z,262.0
2017-09-30T02:09:50.788Z,275.7
2017-09-30T02:10:51.512Z,285.8
2017-09-30T02:11:52.273Z,293.7
2017-09-30T02:12:53.432Z,290.3
2017-09-30T02:13:54.161Z,263.7
2017-09-30T02:14:54.895Z,272.6
2017-09-30T02:15:55.692Z,258.0
2017-09-30T02:16:56.445Z,161.7
2017-09-30T02:17:57.213Z,142.2
2017-09-30T02:18:58.280Z,175.0
2017-09-30T02:19:59.093Z,172.9
2017-09-30T02:20:59.902Z,176.6
2017-09-30T02:22:00.631Z,188.1
2017-09-30T02:23:01.364Z,197.5
2017-09-30T02:24:02.352Z,156.5
2017-09-30T02:25:03.081Z,180.6
2017-09-30T02:26:03.813Z,228.6
2017-09-30T02:27:04.599Z,208.6
2017-09-30T02:28:05.322Z,163.8
2017-09-30T02:29:06.061Z,162.8
2017-09-30T02:30:07.104Z,193.7
2017-09-30T02:31:07.832Z,255.8
2017-09-30T02:32:08.631Z,271.0
2017-09-30T02:33:09.365Z,239.1
2017-09-30T02:34:10.106Z,295.4
2017-09-30T02:35:11.034Z,295.7
2017-09-30T02:36:11.830Z,239.3
2017-09-30T02:37:12.569Z,247.2
2017-09-30T02:38:13.308Z,274.6
2017-09-30T02:39:14.101Z,290.9
2017-09-30T02:40:15.034Z,278.4
2017-09-30T02:41:15.746Z,331.6
2017-09-30T02:42:16.480Z,313.9
2017-09-30T02:43:17.221Z,332.2
2017-09-30T02:44:17.960Z,289.2
2017-09-30T02:45:19.087Z,365.6
2017-09-30T02:46:19.822Z,321.9
2017-09-30T02:47:20.569Z,290.1
2017-09-30T02:48:21.309Z,288.2
2017-09-30T02:49:22.044Z,301.2
2017-09-30T02:50:22.980Z,289.8
2017-09-30T02:51:23.721Z,349.5
2017-09-30T02:52:24.461Z,430.9
2017-09-30T02:53:25.270Z,399.3
2017-09-30T02:54:26.008Z,330.0
2017-09-30T02:55:27.219Z,336.9
2017-09-30T02:56:27.951Z,342.4
2017-09-30T02:57:28.778Z,310.7
2017-09-30T02:58:29.519Z,355.1
2017-09-30T02:59:30.260Z,569.4
2017-09-30T03:00:31.280Z,602.3
2017-09-30T03:01:32.022Z,549.0
2017-09-30T03:02:32.812Z,539.0
2017-09-30T03:03:33.620Z,437.4
2017-09-30T03:04:34.416Z,607.0
2017-09-30T03:05:35.403Z,543.9
2017-09-30T03:06:36.211Z,753.0
2017-09-30T03:07:37.029Z,454.0
2017-09-30T03:08:37.760Z,326.3
2017-09-30T03:09:38.498Z,410.1
2017-09-30T03:10:39.601Z,462.3
2017-09-30T03:11:40.320Z,405.7
2017-09-30T03:12:41.050Z,409.6
2017-09-30T03:13:41.789Z,342.8
2017-09-30T03:14:42.554Z,395.5
2017-09-30T03:15:43.732Z,444.0
2017-09-30T03:16:44.508Z,562.3
2017-09-30T03:17:45.250Z,377.3
2017-09-30T03:18:45.987Z,325.2
2017-09-30T03:19:46.789Z,330.1
2017-09-30T03:20:47.782Z,275.6
2017-09-30T03:21:48.599Z,319.2
2017-09-30T03:22:49.328Z,324.7
2017-09-30T03:23:50.062Z,300.1
2017-09-30T03:24:50.789Z,309.2
2017-09-30T03:25:51.919Z,324.0
2017-09-30T03:26:52.744Z,399.3
2017-09-30T03:27:53.547Z,422.4
2017-09-30T03:28:54.304Z,400.9
2017-09-30T03:29:55.079Z,348.6
2017-09-30T03:30:56.117Z,335.5
2017-09-30T03:31:56.838Z,361.6
2017-09-30T03:32:57.580Z,325.9
2017-09-30T03:33:58.308Z,371.6
2017-09-30T03:34:59.053Z,349.6
2017-09-30T03:36:00.094Z,368.3
2017-09-30T03:37:00.819Z,481.0
2017-09-30T03:38:01.552Z,556.8
2017-09-30T03:39:02.351Z,423.0
2017-09-30T03:40:03.165Z,326.1
2017-09-30T03:41:04.320Z,255.3
2017-09-30T03:42:05.090Z,292.4
2017-09-30T03:43:05.891Z,314.5
2017-09-30T03:44:06.629Z,322.4
2017-09-30T03:45:07.369Z,381.9
2017-09-30T03:46:08.459Z,390.3
2017-09-30T03:47:09.189Z,446.6
2017-09-30T03:48:10.009Z,493.0
2017-09-30T03:49:10.739Z,426.4
2017-09-30T03:50:11.470Z,404.1
2017-09-30T03:51:12.678Z,409.6
2017-09-30T03:52:13.416Z,438.2
2017-09-30T03:53:14.223Z,603.0
2017-09-30T03:54:14.983Z,728.7
2017-09-30T03:55:15.718Z,873.5
2017-09-30T03:56:16.852Z,499.8
2017-09-30T03:57:17.580Z,616.1
2017-09-30T03:58:18.344Z,472.0
2017-09-30T03:59:19.131Z,300.4
2017-09-30T04:00:19.860Z,194.1
2017-09-30T04:01:20.979Z,139.7
2017-09-30T04:02:21.737Z,119.5
2017-09-30T04:03:22.451Z,161.0
2017-09-30T04:04:23.277Z,118.8
2017-09-30T04:05:24.021Z,123.3
2017-09-30T04:06:25.124Z,124.1
2017-09-30T04:07:25.839Z,152.3
2017-09-30T04:08:26.575Z,173.4
2017-09-30T04:09:27.371Z,130.2
2017-09-30T04:10:28.191Z,124.7
2017-09-30T04:11:29.396Z,133.1
2017-09-30T04:12:30.130Z,96.6
2017-09-30T04:13:30.952Z,126.2
2017-09-30T04:14:31.760Z,140.1
2017-09-30T04:15:32.492Z,224.9
2017-09-30T04:16:33.418Z,182.6
2017-09-30T04:17:34.181Z,111.5
2017-09-30T04:18:34.933Z,179.3
2017-09-30T04:19:35.662Z,153.5
2017-09-30T04:20:36.401Z,162.0
2017-09-30T04:21:37.440Z,168.5
2017-09-30T04:22:38.192Z,187.7
2017-09-30T04:23:38.912Z,230.6
2017-09-30T04:24:39.725Z,170.5
2017-09-30T04:25:40.522Z,210.4
2017-09-30T04:26:41.511Z,249.8
2017-09-30T04:27:42.251Z,237.0
2017-09-30T04:28:43.000Z,284.1
2017-09-30T04:29:43.792Z,311.8
2017-09-30T04:30:44.524Z,355.7
2017-09-30T04:31:45.331Z,359.1
2017-09-30T04:32:46.081Z,303.6
2017-09-30T04:33:46.811Z,340.1
2017-09-30T04:34:47.558Z,382.8
2017-09-30T04:35:48.283Z,309.0
2017-09-30T04:36:49.419Z,289.4
2017-09-30T04:37:50.202Z,285.5
2017-09-30T04:38:50.944Z,224.3
2017-09-30T04:39:51.764Z,260.0
2017-09-30T04:40:52.571Z,319.3
2017-09-30T04:41:53.614Z,300.9
2017-09-30T04:42:54.422Z,263.4
2017-09-30T04:43:55.161Z,245.9
2017-09-30T04:44:55.912Z,232.2
2017-09-30T04:45:56.651Z,224.4
2017-09-30T04:46:57.692Z,180.4
2017-09-30T04:47:58.431Z,169.1
2017-09-30T04:48:59.163Z,204.8
2017-09-30T04:49:59.901Z,221.2
2017-09-30T04:51:00.640Z,199.3
2017-09-30T04:52:01.381Z,220.6
2017-09-30T04:53:02.113Z,149.5
2017-09-30T04:54:03.251Z,174.7
2017-09-30T04:55:03.982Z,174.7
2017-09-30T04:56:04.732Z,200.1
2017-09-30T04:57:05.529Z,213.3
2017-09-30T04:58:06.261Z,241.9
2017-09-30T04:59:07.252Z,245.4
2017-09-30T05:00:07.990Z,241.7
2017-09-30T05:01:08.742Z,275.3
2017-09-30T05:02:09.523Z,280.6
2017-09-30T05:03:10.321Z,311.3
2017-09-30T05:04:11.065Z,287.0
2017-09-30T05:05:11.834Z,304.3
2017-09-30T05:06:12.893Z,289.8
2017-09-30T05:07:13.622Z,268.7
2017-09-30T05:08:14.352Z,248.4
2017-09-30T05:09:15.076Z,230.3
2017-09-30T05:10:15.863Z,247.0
2017-09-30T05:11:17.083Z,210.2
2017-09-30T05:12:17.892Z,219.1
2017-09-30T05:13:18.696Z,245.6
2017-09-30T05:14:19.486Z,251.0
2017-09-30T05:15:20.299Z,285.0
2017-09-30T05:16:21.232Z,210.9
2017-09-30T05:17:21.972Z,260.0
2017-09-30T05:18:22.716Z,301.7
2017-09-30T05:19:23.449Z,269.6
2017-09-30T05:20:24.248Z,258.7
2017-09-30T05:21:25.383Z,298.6
2017-09-30T05:22:26.112Z,333.0
2017-09-30T05:23:26.923Z,411.7
2017-09-30T05:24:27.663Z,465.2
2017-09-30T05:25:28.402Z,393.6
2017-09-30T05:26:29.515Z,386.1
2017-09-30T05:27:30.292Z,332.1
2017-09-30T05:28:31.027Z,315.4
2017-09-30T05:29:31.764Z,234.6
2017-09-30T05:30:32.568Z,186.1
2017-09-30T05:31:33.574Z,236.4
2017-09-30T05:32:34.311Z,242.7
2017-09-30T05:33:35.042Z,249.8
2017-09-30T05:34:35.782Z,303.5
2017-09-30T05:35:36.522Z,553.7
2017-09-30T05:36:37.564Z,888.6
2017-09-30T05:37:38.371Z,625.0
2017-09-30T05:38:39.113Z,659.4
2017-09-30T05:39:39.868Z,320.2
2017-09-30T05:40:40.610Z,292.4
2017-09-30T05:41:41.819Z,228.4
2017-09-30T05:42:42.555Z,244.7
2017-09-30T05:43:43.341Z,342.1
2017-09-30T05:44:44.149Z,362.7
2017-09-30T05:45:44.881Z,320.0
2017-09-30T05:46:45.620Z,261.7
2017-09-30T05:47:46.429Z,250.6
2017-09-30T05:48:47.169Z,237.6
2017-09-30T05:49:48.134Z,243.1
2017-09-30T05:50:48.931Z,261.0
2017-09-30T05:51:49.745Z,272.3
2017-09-30T05:52:50.551Z,265.8
2017-09-30T05:53:51.312Z,320.2
2017-09-30T05:54:52.469Z,289.4
2017-09-30T05:55:53.201Z,273.6
2017-09-30T05:56:54.019Z,312.7
2017-09-30T05:57:54.768Z,336.0
2017-09-30T05:58:55.509Z,375.0
2017-09-30T05:59:56.603Z,422.3
2017-09-30T06:00:57.398Z,384.2
2017-09-30T06:01:58.138Z,354.8
2017-09-30T06:02:58.957Z,349.5
2017-09-30T06:03:59.751Z,321.7
2017-09-30T06:05:00.864Z,319.5
2017-09-30T06:06:01.670Z,579.9
2017-09-30T06:07:02.480Z,722.7
2017-09-30T06:08:03.288Z,455.0
2017-09-30T06:09:04.029Z,387.8
2017-09-30T06:10:04.775Z,412.4
2017-09-30T06:11:05.581Z,440.1
2017-09-30T06:12:06.319Z,481.0
2017-09-30T06:13:07.151Z,482.4
2017-09-30T06:14:08.248Z,363.0
2017-09-30T06:15:08.978Z,319.5
2017-09-30T06:16:09.715Z,293.7
2017-09-30T06:17:10.450Z,304.4
2017-09-30T06:18:11.271Z,332.8
2017-09-30T06:19:12.388Z,302.1
2017-09-30T06:20:13.148Z,354.5
2017-09-30T06:21:13.952Z,431.2
2017-09-30T06:22:14.748Z,429.1
2017-09-30T06:23:15.488Z,435.7
2017-09-30T06:24:16.647Z,380.5
2017-09-30T06:25:17.393Z,384.4
2017-09-30T06:26:18.188Z,446.5
2017-09-30T06:27:18.922Z,379.7
2017-09-30T06:28:19.663Z,376.2
2017-09-30T06:29:20.464Z,347.2
2017-09-30T06:30:21.239Z,352.2
2017-09-30T06:31:21.988Z,389.9
2017-09-30T06:32:22.738Z,384.8
2017-09-30T06:33:23.480Z,440.1
2017-09-30T06:34:24.593Z,297.8
2017-09-30T06:35:25.370Z,452.8
2017-09-30T06:36:26.182Z,369.8
2017-09-30T06:37:26.918Z,337.0
2017-09-30T06:38:27.683Z,265.1
2017-09-30T06:39:28.877Z,242.7
2017-09-30T06:40:29.623Z,276.8
2017-09-30T06:41:30.443Z,287.5
2017-09-30T06:42:31.230Z,239.0
2017-09-30T06:43:32.037Z,216.5
2017-09-30T06:44:33.129Z,239.7
2017-09-30T06:45:33.937Z,228.2
2017-09-30T06:46:34.677Z,236.0
2017-09-30T06:47:35.420Z,364.9
2017-09-30T06:48:36.235Z,287.9
2017-09-30T06:49:37.315Z,234.1
2017-09-30T06:50:38.060Z,246.7
2017-09-30T06:51:38.797Z,251.8
2017-09-30T06:52:39.604Z,344.0
2017-09-30T06:53:40.369Z,421.6
2017-09-30T06:54:41.319Z,551.2
2017-09-30T06:55:42.061Z,443.8
2017-09-30T06:56:42.830Z,417.3
2017-09-30T06:57:43.566Z,432.2
2017-09-30T06:58:44.389Z,390.9
2017-09-30T06:59:45.336Z,375.9
2017-09-30T07:00:46.144Z,392.7
2017-09-30T07:01:46.950Z,394.3
2017-09-30T07:02:47.677Z,391.6
2017-09-30T07:03:48.445Z,302.4
2017-09-30T07:04:49.538Z,229.2
2017-09-30T07:05:50.350Z,277.2
2017-09-30T07:06:51.111Z,252.4
2017-09-30T07:07:51.851Z,135.1
2017-09-30T07:08:52.603Z,118.5
2017-09-30T07:09:53.806Z,109.4
2017-09-30T07:10:54.550Z,104.4
2017-09-30T07:11:55.292Z,76.9
2017-09-30T07:12:56.033Z,81.9
2017-09-30T07:13:56.769Z,95.4
2017-09-30T07:14:57.501Z,115.4
2017-09-30T07:15:58.249Z,106.6
2017-09-30T07:16:59.025Z,124.9
2017-09-30T07:17:59.772Z,100.1
2017-09-30T07:19:00.811Z,130.0
2017-09-30T07:20:01.556Z,125.8
2017-09-30T07:21:02.360Z,132.8
2017-09-30T07:22:03.101Z,136.1
2017-09-30T07:23:03.845Z,109.0
2017-09-30T07:24:04.999Z,114.3
2017-09-30T07:25:05.772Z,131.7
2017-09-30T07:26:06.611Z,120.5
2017-09-30T07:27:07.351Z,149.9
2017-09-30T07:28:08.101Z,138.1
2017-09-30T07:29:08.844Z,141.5
2017-09-30T07:30:10.010Z,152.3
2017-09-30T07:31:10.770Z,161.7
2017-09-30T07:32:11.502Z,140.2
2017-09-30T07:33:12.327Z,135.9
2017-09-30T07:34:13.114Z,128.8
2017-09-30T07:35:14.273Z,138.7
2017-09-30T07:36:15.053Z,122.5
2017-09-30T07:37:15.791Z,134.2
2017-09-30T07:38:16.533Z,127.0
2017-09-30T07:39:17.281Z,117.4
2017-09-30T07:40:18.022Z,85.6
2017-09-30T07:41:18.771Z,86.9
2017-09-30T07:42:19.501Z,82.6
2017-09-30T07:43:20.242Z,67.5
2017-09-30T07:44:20.991Z,70.6
2017-09-30T07:45:22.271Z,65.6
2017-09-30T07:46:23.022Z,77.5
2017-09-30T07:47:23.819Z,76.3
2017-09-30T07:48:24.600Z,73.9
2017-09-30T07:49:25.343Z,69.6
2017-09-30T07:50:26.554Z,83.6
2017-09-30T07:51:27.286Z,73.1
2017-09-30T07:52:28.024Z,67.2
2017-09-30T07:53:28.795Z,66.1
2017-09-30T07:54:29.594Z,65.3
2017-09-30T07:55:30.642Z,58.1
2017-09-30T07:56:31.453Z,69.7
2017-09-30T07:57:32.201Z,98.6
2017-09-30T07:58:32.935Z,84.5
2017-09-30T07:59:33.747Z,115.9
2017-09-30T08:00:34.911Z,84.6
2017-09-30T08:01:35.663Z,116.7
2017-09-30T08:02:36.660Z,79.7
2017-09-30T08:03:38.098Z,120.1
2017-09-30T08:04:39.019Z,86.6
2017-09-30T08:05:40.072Z,87.2
2017-09-30T08:06:40.814Z,117.8
2017-09-30T08:07:41.617Z,125.3
2017-09-30T08:08:42.364Z,118.0
2017-09-30T08:09:43.193Z,146.5
2017-09-30T08:10:44.029Z,133.7
2017-09-30T08:11:44.872Z,122.8
2017-09-30T08:12:46.071Z,111.5
2017-09-30T08:13:46.861Z,108.9
2017-09-30T08:14:47.595Z,104.1
2017-09-30T08:15:48.337Z,106.4
2017-09-30T08:16:49.088Z,102.9
2017-09-30T08:17:50.133Z,117.4
2017-09-30T08:18:50.900Z,117.0
2017-09-30T08:19:51.633Z,110.7
2017-09-30T08:20:52.394Z,121.5
2017-09-30T08:21:53.137Z,148.0
2017-09-30T08:22:53.889Z,132.2
2017-09-30T08:23:54.621Z,137.3
2017-09-30T08:24:55.714Z,111.0
2017-09-30T08:25:56.463Z,112.0
2017-09-30T08:26:57.231Z,122.5
2017-09-30T08:27:57.978Z,149.1
2017-09-30T08:28:58.725Z,112.4
2017-09-30T08:29:59.891Z,125.9
2017-09-30T08:31:00.669Z,116.0
2017-09-30T08:32:01.411Z,125.7
2017-09-30T08:33:02.224Z,99.2
2017-09-30T08:34:03.038Z,72.0
2017-09-30T08:35:04.058Z,76.3
2017-09-30T08:36:04.810Z,67.7
2017-09-30T08:37:05.638Z,57.8
2017-09-30T08:38:06.428Z,65.5
2017-09-30T08:39:07.170Z,68.4
2017-09-30T08:40:08.310Z,44.4
2017-09-30T08:41:09.129Z,52.4
2017-09-30T08:42:09.927Z,59.7
2017-09-30T08:43:10.751Z,56.1
2017-09-30T08:44:11.550Z,42.8
2017-09-30T08:45:12.628Z,37.0
2017-09-30T08:46:13.376Z,35.1
2017-09-30T08:47:14.179Z,35.4
2017-09-30T08:48:14.915Z,30.0
2017-09-30T08:49:15.657Z,33.4
2017-09-30T08:50:16.391Z,23.4
2017-09-30T08:51:17.235Z,40.4
2017-09-30T08:52:18.890Z,23.9
2017-09-30T08:53:20.716Z,28.9
2017-09-30T08:54:21.392Z,27.5
2017-09-30T08:55:22.138Z,32.3
2017-09-30T08:56:22.874Z,42.7
2017-09-30T08:57:23.613Z,32.7
2017-09-30T08:58:24.448Z,36.9
2017-09-30T08:59:25.385Z,35.6
2017-09-30T09:00:26.177Z,46.2
2017-09-30T09:01:26.912Z,44.4
2017-09-30T09:02:27.648Z,48.1
2017-09-30T09:03:28.398Z,49.5
2017-09-30T09:04:29.309Z,44.9
2017-09-30T09:05:30.042Z,46.9
2017-09-30T09:06:30.772Z,55.9
2017-09-30T09:07:31.568Z,51.8
2017-09-30T09:08:32.307Z,52.0
2017-09-30T09:09:33.398Z,54.3
2017-09-30T09:10:34.157Z,1242.3
2017-09-30T09:11:34.958Z,1999.9
2017-09-30T09:12:35.698Z,1939.4
2017-09-30T09:13:36.442Z,412.4
2017-09-30T09:14:37.434Z,1045.1
2017-09-30T09:15:38.185Z,416.7
2017-09-30T09:16:38.932Z,265.6
2017-09-30T09:17:39.748Z,143.3
2017-09-30T09:18:40.492Z,90.5
2017-09-30T09:19:41.598Z,64.7
2017-09-30T09:20:42.377Z,68.6
2017-09-30T09:21:43.120Z,59.4
2017-09-30T09:22:43.914Z,68.0
2017-09-30T09:23:44.704Z,48.7
2017-09-30T09:24:45.786Z,55.3
2017-09-30T09:25:46.540Z,49.0
2017-09-30T09:26:47.340Z,52.4
2017-09-30T09:27:48.156Z,62.1
2017-09-30T09:28:48.888Z,73.7
2017-09-30T09:29:50.028Z,68.6
2017-09-30T09:30:50.762Z,70.4
2017-09-30T09:31:51.499Z,73.9
2017-09-30T09:32:52.318Z,70.7
2017-09-30T09:33:53.057Z,69.3
2017-09-30T09:34:54.199Z,82.0
2017-09-30T09:35:54.937Z,75.0
2017-09-30T09:36:55.698Z,82.3
2017-09-30T09:37:56.447Z,84.9
2017-09-30T09:38:57.194Z,96.1
2017-09-30T09:39:58.177Z,81.1
2017-09-30T09:40:58.921Z,65.9
2017-09-30T09:41:59.723Z,67.5
2017-09-30T09:43:00.463Z,74.3
2017-09-30T09:44:01.283Z,84.0
2017-09-30T09:45:02.440Z,88.4
2017-09-30T09:46:03.189Z,69.6
2017-09-30T09:47:04.012Z,73.0
2017-09-30T09:48:04.790Z,79.7
2017-09-30T09:49:05.544Z,76.6
2017-09-30T09:50:06.731Z,77.0
2017-09-30T09:51:07.469Z,80.6
2017-09-30T09:52:08.215Z,83.6
2017-09-30T09:53:09.009Z,73.6
2017-09-30T09:54:09.753Z,66.1
2017-09-30T09:55:10.560Z,51.4
2017-09-30T09:56:11.310Z,45.6
2017-09-30T09:57:12.087Z,35.7
2017-09-30T09:58:12.873Z,31.3
2017-09-30T09:59:13.679Z,33.0
2017-09-30T10:00:14.629Z,31.1
2017-09-30T10:01:15.370Z,29.7
2017-09-30T10:02:16.125Z,36.7
2017-09-30T10:03:16.879Z,36.0
2017-09-30T10:04:17.664Z,143.8
2017-09-30T10:05:18.614Z,60.7
2017-09-30T10:06:19.410Z,36.6
2017-09-30T10:07:20.158Z,25.8
2017-09-30T10:08:20.912Z,24.8
2017-09-30T10:09:21.721Z,25.3
2017-09-30T10:10:22.479Z,23.1
2017-09-30T10:11:23.271Z,18.9
2017-09-30T10:12:24.519Z,20.7
2017-09-30T10:13:25.438Z,23.2
2017-09-30T10:14:26.298Z,29.2
2017-09-30T10:15:27.058Z,31.9
2017-09-30T10:16:27.807Z,28.8
2017-09-30T10:17:28.612Z,29.4
2017-09-30T10:18:29.361Z,25.1
2017-09-30T10:19:31.715Z,22.3
2017-09-30T10:20:32.720Z,28.2
2017-09-30T10:21:33.531Z,31.8
2017-09-30T10:22:34.278Z,23.9
2017-09-30T10:23:35.105Z,49.3
2017-09-30T10:24:36.339Z,21.3
2017-09-30T10:25:37.132Z,19.0
2017-09-30T10:26:37.931Z,22.1
2017-09-30T10:27:38.693Z,22.8
2017-09-30T10:28:40.136Z,27.2
2017-09-30T10:29:41.248Z,24.4
2017-09-30T10:30:42.052Z,21.5
2017-09-30T10:31:42.810Z,23.5
2017-09-30T10:32:43.630Z,22.8
2017-09-30T10:33:44.382Z,22.0
2017-09-30T10:34:45.425Z,26.7
2017-09-30T10:35:46.232Z,23.7
2017-09-30T10:36:47.041Z,30.6
2017-09-30T10:37:47.780Z,24.8
2017-09-30T10:38:49.549Z,25.4
2017-09-30T10:39:50.870Z,27.5
2017-09-30T10:40:51.611Z,25.8
2017-09-30T10:41:52.349Z,29.8
2017-09-30T10:42:53.091Z,25.7
2017-09-30T10:43:53.832Z,26.8
2017-09-30T10:44:54.942Z,26.0
2017-09-30T10:45:55.735Z,27.4
2017-09-30T10:46:56.511Z,35.4
2017-09-30T10:47:57.280Z,27.6
2017-09-30T10:48:57.975Z,29.9
2017-09-30T10:49:59.070Z,29.8
2017-09-30T10:50:59.815Z,37.0
2017-09-30T10:52:00.601Z,35.7
2017-09-30T10:53:01.417Z,33.0
2017-09-30T10:54:02.224Z,37.6
2017-09-30T10:55:03.382Z,33.0
2017-09-30T10:56:04.211Z,25.4
2017-09-30T10:57:04.969Z,26.9
2017-09-30T10:58:05.722Z,26.6
2017-09-30T10:59:06.564Z,28.4
2017-09-30T11:00:07.589Z,26.4
2017-09-30T11:01:08.323Z,24.9
2017-09-30T11:02:09.060Z,20.6
2017-09-30T11:03:09.810Z,24.2
2017-09-30T11:04:10.556Z,27.8
2017-09-30T11:05:11.697Z,22.6
2017-09-30T11:06:12.438Z,23.4
2017-09-30T11:07:13.200Z,23.6
2017-09-30T11:08:14.005Z,25.0
2017-09-30T11:09:14.809Z,24.9
2017-09-30T11:10:15.950Z,24.1
2017-09-30T11:11:16.698Z,24.0
2017-09-30T11:12:17.474Z,26.6
2017-09-30T11:13:18.219Z,23.6
2017-09-30T11:14:18.962Z,22.9
2017-09-30T11:15:20.179Z,22.4
2017-09-30T11:16:20.970Z,18.7
2017-09-30T11:17:21.788Z,16.4
2017-09-30T11:18:22.530Z,20.3
2017-09-30T11:19:23.277Z,19.5
2017-09-30T11:20:24.259Z,17.9
2017-09-30T11:21:25.011Z,17.5
2017-09-30T11:22:25.813Z,19.8
2017-09-30T11:23:26.533Z,18.7
2017-09-30T11:24:27.348Z,19.9
2017-09-30T11:25:28.540Z,18.7
2017-09-30T11:26:29.360Z,16.2
2017-09-30T11:27:30.100Z,19.8
2017-09-30T11:28:30.871Z,17.7
2017-09-30T11:29:31.618Z,27.6
2017-09-30T11:30:32.711Z,20.0
2017-09-30T11:31:33.523Z,16.5
2017-09-30T11:32:34.309Z,13.2
2017-09-30T11:33:35.042Z,12.7
2017-09-30T11:34:35.769Z,22.0
2017-09-30T11:35:36.952Z,16.3
2017-09-30T11:36:37.739Z,13.9
2017-09-30T11:37:38.479Z,17.0
2017-09-30T11:38:39.221Z,15.0
2017-09-30T11:39:40.104Z,14.7
2017-09-30T11:40:41.266Z,13.8
2017-09-30T11:41:42.070Z,23.3
2017-09-30T11:42:42.814Z,20.0
2017-09-30T11:43:43.649Z,19.2
2017-09-30T11:44:44.450Z,16.9
2017-09-30T11:45:45.590Z,12.7
2017-09-30T11:46:46.337Z,13.6
2017-09-30T11:47:47.119Z,9.5
2017-09-30T11:48:47.929Z,9.3
2017-09-30T11:49:48.682Z,12.5
2017-09-30T11:50:49.629Z,8.8
2017-09-30T11:51:50.371Z,8.9
2017-09-30T11:52:51.122Z,9.7
2017-09-30T11:53:51.930Z,8.0
2017-09-30T11:54:52.672Z,12.4
2017-09-30T11:55:53.778Z,8.4
2017-09-30T11:56:54.520Z,5.6
2017-09-30T11:57:55.272Z,10.0
2017-09-30T11:58:56.088Z,4.1
2017-09-30T11:59:56.831Z,4.2
2017-09-30T12:00:57.840Z,3.9
2017-09-30T12:01:58.582Z,3.6
2017-09-30T12:02:59.390Z,3.5
2017-09-30T12:04:00.136Z,3.7
2017-09-30T12:05:00.930Z,5.2
2017-09-30T12:06:01.968Z,4.2
2017-09-30T12:07:02.776Z,6.2
2017-09-30T12:08:03.569Z,7.4
2017-09-30T12:09:04.306Z,4.1
2017-09-30T12:10:05.121Z,5.0
2017-09-30T12:11:06.221Z,4.8
2017-09-30T12:12:06.939Z,3.4
2017-09-30T12:13:07.690Z,4.3
2017-09-30T12:14:08.499Z,6.6
2017-09-30T12:15:09.233Z,5.9
2017-09-30T12:16:10.338Z,5.8
2017-09-30T12:17:11.108Z,8.1
2017-09-30T12:18:11.884Z,5.0
2017-09-30T12:19:12.620Z,4.9
2017-09-30T12:20:13.370Z,7.1
2017-09-30T12:21:14.511Z,5.2
2017-09-30T12:22:15.251Z,7.3
2017-09-30T12:23:16.069Z,9.3
2017-09-30T12:24:16.813Z,5.3
2017-09-30T12:25:17.601Z,7.8
2017-09-30T12:26:18.642Z,8.1
2017-09-30T12:27:19.411Z,11.6
2017-09-30T12:28:20.220Z,18.1
2017-09-30T12:29:20.967Z,8.9
2017-09-30T12:30:21.696Z,7.1
2017-09-30T12:31:22.674Z,7.4
2017-09-30T12:32:23.421Z,9.0
2017-09-30T12:33:24.179Z,7.2
2017-09-30T12:34:24.916Z,8.0
2017-09-30T12:35:25.655Z,13.7
2017-09-30T12:36:26.890Z,9.7
2017-09-30T12:37:27.630Z,12.4
2017-09-30T12:38:28.376Z,13.7
2017-09-30T12:39:29.099Z,7.5
2017-09-30T12:40:29.859Z,9.2
2017-09-30T12:41:31.038Z,8.3
2017-09-30T12:42:32.624Z,10.7
2017-09-30T12:43:33.386Z,7.2
2017-09-30T12:44:34.203Z,7.1
2017-09-30T12:45:35.958Z,6.2
2017-09-30T12:46:37.370Z,9.8
2017-09-30T12:47:38.154Z,11.6
2017-09-30T12:48:38.944Z,9.0
2017-09-30T12:49:39.768Z,9.7
2017-09-30T12:50:40.560Z,14.5
2017-09-30T12:51:41.704Z,8.1
2017-09-30T12:52:42.497Z,11.3
2017-09-30T12:53:43.297Z,8.5
2017-09-30T12:54:44.048Z,9.1
2017-09-30T12:55:44.839Z,8.9
2017-09-30T12:56:45.881Z,10.6
2017-09-30T12:57:46.731Z,12.6
2017-09-30T12:58:47.471Z,10.1
2017-09-30T12:59:48.290Z,10.8
2017-09-30T13:00:49.031Z,7.1
2017-09-30T13:01:50.114Z,7.8
2017-09-30T13:02:50.892Z,8.6
2017-09-30T13:03:51.923Z,9.3
2017-09-30T13:04:52.759Z,7.3
2017-09-30T13:05:53.486Z,9.8
2017-09-30T13:06:56.154Z,12.3
2017-09-30T13:07:57.117Z,9.5
2017-09-30T13:08:57.909Z,14.1
2017-09-30T13:09:58.714Z,9.3
2017-09-30T13:10:59.450Z,13.8
2017-09-30T13:12:00.678Z,13.6
2017-09-30T13:13:01.479Z,10.6
2017-09-30T13:14:02.538Z,10.0
2017-09-30T13:15:03.219Z,9.7